sensor_id;sensor_type;location;lat;lon;timestamp;P1;durP1;ratioP1;P2;durP2;ratioP2
67065;SDS011;53978;43.846;25.952;2022-11-11T00:01:09;23.50;;;13.90;;
67065;SDS011;53978;43.846;25.952;2022-11-11T00:03:39;24.23;;;13.40;;
67065;SDS011;53978;43.846;25.952;2022-11-11T00:06:05;29.63;;;14.15;;
67065;SDS011;53978;43.846;25.952;2022-11-11T00:08:33;30.60;;;13.77;;
67065;SDS011;53978;43.846;25.952;2022-11-11T00:11:02;26.75;;;13.48;;
67065;SDS011;53978;43.846;25.952;2022-11-11T00:13:33;28.00;;;13.13;;
67065;SDS011;53978;43.846;25.952;2022-11-11T00:16:04;26.85;;;14.23;;
67065;SDS011;53978;43.846;25.952;2022-11-11T00:18:31;24.88;;;13.77;;
67065;SDS011;53978;43.846;25.952;2022-11-11T00:21:14;27.05;;;13.88;;
67065;SDS011;53978;43.846;25.952;2022-11-11T00:23:58;31.20;;;14.70;;
67065;SDS011;53978;43.846;25.952;2022-11-11T00:26:42;24.17;;;13.13;;
67065;SDS011;53978;43.846;25.952;2022-11-11T00:29:10;25.02;;;13.70;;
67065;SDS011;53978;43.846;25.952;2022-11-11T00:31:35;26.38;;;14.40;;
67065;SDS011;53978;43.846;25.952;2022-11-11T00:34:21;27.98;;;13.82;;
67065;SDS011;53978;43.846;25.952;2022-11-11T00:36:46;29.60;;;14.73;;
67065;SDS011;53978;43.846;25.952;2022-11-11T00:39:12;25.65;;;15.25;;
67065;SDS011;53978;43.846;25.952;2022-11-11T00:41:37;26.65;;;14.32;;
67065;SDS011;53978;43.846;25.952;2022-11-11T00:44:05;25.75;;;14.75;;
67065;SDS011;53978;43.846;25.952;2022-11-11T00:46:30;27.60;;;14.82;;
67065;SDS011;53978;43.846;25.952;2022-11-11T00:49:14;25.38;;;13.90;;
67065;SDS011;53978;43.846;25.952;2022-11-11T00:51:58;22.85;;;13.68;;
67065;SDS011;53978;43.846;25.952;2022-11-11T00:54:24;32.42;;;15.30;;
67065;SDS011;53978;43.846;25.952;2022-11-11T00:56:49;27.48;;;14.35;;
67065;SDS011;53978;43.846;25.952;2022-11-11T00:59:14;29.75;;;15.57;;
67065;SDS011;53978;43.846;25.952;2022-11-11T01:01:40;27.80;;;15.02;;
67065;SDS011;53978;43.846;25.952;2022-11-11T01:04:05;25.23;;;14.82;;
67065;SDS011;53978;43.846;25.952;2022-11-11T01:06:31;27.15;;;15.23;;
67065;SDS011;53978;43.846;25.952;2022-11-11T01:08:56;28.10;;;15.05;;
67065;SDS011;53978;43.846;25.952;2022-11-11T01:11:22;24.85;;;14.80;;
67065;SDS011;53978;43.846;25.952;2022-11-11T01:13:48;28.83;;;14.65;;
67065;SDS011;53978;43.846;25.952;2022-11-11T01:16:21;25.73;;;15.10;;
67065;SDS011;53978;43.846;25.952;2022-11-11T01:18:48;25.02;;;13.73;;
67065;SDS011;53978;43.846;25.952;2022-11-11T01:21:19;24.17;;;13.88;;
67065;SDS011;53978;43.846;25.952;2022-11-11T01:23:45;26.02;;;14.13;;
67065;SDS011;53978;43.846;25.952;2022-11-11T01:26:17;28.08;;;14.85;;
67065;SDS011;53978;43.846;25.952;2022-11-11T01:28:50;26.40;;;14.07;;
67065;SDS011;53978;43.846;25.952;2022-11-11T01:31:16;26.35;;;13.75;;
67065;SDS011;53978;43.846;25.952;2022-11-11T01:33:42;28.67;;;14.35;;
67065;SDS011;53978;43.846;25.952;2022-11-11T01:36:15;23.90;;;13.48;;
67065;SDS011;53978;43.846;25.952;2022-11-11T01:38:52;28.23;;;13.75;;
67065;SDS011;53978;43.846;25.952;2022-11-11T01:41:20;25.25;;;13.65;;
67065;SDS011;53978;43.846;25.952;2022-11-11T01:43:57;24.75;;;13.73;;
67065;SDS011;53978;43.846;25.952;2022-11-11T01:46:40;23.30;;;13.80;;
67065;SDS011;53978;43.846;25.952;2022-11-11T01:52:04;28.02;;;14.02;;
67065;SDS011;53978;43.846;25.952;2022-11-11T01:54:43;31.77;;;14.27;;
67065;SDS011;53978;43.846;25.952;2022-11-11T01:57:24;27.85;;;13.55;;
67065;SDS011;53978;43.846;25.952;2022-11-11T01:59:52;28.80;;;13.57;;
67065;SDS011;53978;43.846;25.952;2022-11-11T02:02:33;27.33;;;13.63;;
67065;SDS011;53978;43.846;25.952;2022-11-11T02:05:02;23.42;;;12.70;;
67065;SDS011;53978;43.846;25.952;2022-11-11T02:10:12;24.80;;;11.85;;
67065;SDS011;53978;43.846;25.952;2022-11-11T02:12:37;23.98;;;13.15;;
67065;SDS011;53978;43.846;25.952;2022-11-11T02:15:21;22.05;;;12.70;;
67065;SDS011;53978;43.846;25.952;2022-11-11T02:17:47;25.80;;;13.40;;
67065;SDS011;53978;43.846;25.952;2022-11-11T02:20:14;24.40;;;13.88;;
67065;SDS011;53978;43.846;25.952;2022-11-11T02:23:16;24.50;;;12.57;;
67065;SDS011;53978;43.846;25.952;2022-11-11T02:25:37;23.92;;;13.20;;
67065;SDS011;53978;43.846;25.952;2022-11-11T02:28:05;25.10;;;13.45;;
67065;SDS011;53978;43.846;25.952;2022-11-11T02:30:31;25.23;;;13.73;;
67065;SDS011;53978;43.846;25.952;2022-11-11T02:32:56;24.25;;;12.95;;
67065;SDS011;53978;43.846;25.952;2022-11-11T02:35:32;24.55;;;12.98;;
67065;SDS011;53978;43.846;25.952;2022-11-11T02:38:03;22.50;;;13.43;;
67065;SDS011;53978;43.846;25.952;2022-11-11T02:40:34;25.27;;;12.70;;
67065;SDS011;53978;43.846;25.952;2022-11-11T02:43:28;28.10;;;13.35;;
67065;SDS011;53978;43.846;25.952;2022-11-11T02:45:54;25.23;;;13.10;;
67065;SDS011;53978;43.846;25.952;2022-11-11T02:48:20;24.20;;;13.30;;
67065;SDS011;53978;43.846;25.952;2022-11-11T02:50:46;23.15;;;12.65;;
67065;SDS011;53978;43.846;25.952;2022-11-11T02:53:11;24.40;;;13.50;;
67065;SDS011;53978;43.846;25.952;2022-11-11T02:55:37;23.90;;;13.25;;
67065;SDS011;53978;43.846;25.952;2022-11-11T02:58:04;23.83;;;12.75;;
67065;SDS011;53978;43.846;25.952;2022-11-11T03:00:30;22.90;;;13.05;;
67065;SDS011;53978;43.846;25.952;2022-11-11T03:02:56;22.38;;;12.73;;
67065;SDS011;53978;43.846;25.952;2022-11-11T03:05:21;24.27;;;12.20;;
67065;SDS011;53978;43.846;25.952;2022-11-11T03:07:47;22.40;;;12.88;;
67065;SDS011;53978;43.846;25.952;2022-11-11T03:10:12;26.95;;;13.93;;
67065;SDS011;53978;43.846;25.952;2022-11-11T03:12:37;29.42;;;13.13;;
67065;SDS011;53978;43.846;25.952;2022-11-11T03:15:03;25.60;;;12.55;;
67065;SDS011;53978;43.846;25.952;2022-11-11T03:17:29;24.48;;;12.98;;
67065;SDS011;53978;43.846;25.952;2022-11-11T03:20:09;23.02;;;13.05;;
67065;SDS011;53978;43.846;25.952;2022-11-11T03:23:04;27.83;;;12.57;;
67065;SDS011;53978;43.846;25.952;2022-11-11T03:25:30;25.15;;;13.10;;
67065;SDS011;53978;43.846;25.952;2022-11-11T03:28:02;22.20;;;13.18;;
67065;SDS011;53978;43.846;25.952;2022-11-11T03:30:33;25.20;;;12.90;;
67065;SDS011;53978;43.846;25.952;2022-11-11T03:32:59;24.67;;;13.27;;
67065;SDS011;53978;43.846;25.952;2022-11-11T03:35:25;28.02;;;13.13;;
67065;SDS011;53978;43.846;25.952;2022-11-11T03:37:50;27.30;;;13.43;;
67065;SDS011;53978;43.846;25.952;2022-11-11T03:40:34;22.25;;;12.68;;
67065;SDS011;53978;43.846;25.952;2022-11-11T03:42:59;24.10;;;13.50;;
67065;SDS011;53978;43.846;25.952;2022-11-11T03:45:25;26.73;;;13.75;;
67065;SDS011;53978;43.846;25.952;2022-11-11T03:47:50;27.05;;;14.48;;
67065;SDS011;53978;43.846;25.952;2022-11-11T03:50:15;25.85;;;13.48;;
67065;SDS011;53978;43.846;25.952;2022-11-11T03:52:41;26.33;;;14.10;;
67065;SDS011;53978;43.846;25.952;2022-11-11T03:55:09;27.80;;;13.82;;
67065;SDS011;53978;43.846;25.952;2022-11-11T03:57:39;25.17;;;13.75;;
67065;SDS011;53978;43.846;25.952;2022-11-11T04:00:09;23.10;;;13.48;;
67065;SDS011;53978;43.846;25.952;2022-11-11T04:02:39;23.30;;;13.93;;
67065;SDS011;53978;43.846;25.952;2022-11-11T04:05:23;25.43;;;13.13;;
67065;SDS011;53978;43.846;25.952;2022-11-11T04:08:10;27.23;;;12.98;;
67065;SDS011;53978;43.846;25.952;2022-11-11T04:10:55;22.25;;;13.55;;
67065;SDS011;53978;43.846;25.952;2022-11-11T04:13:22;24.98;;;14.70;;
67065;SDS011;53978;43.846;25.952;2022-11-11T04:16:06;24.77;;;13.03;;
67065;SDS011;53978;43.846;25.952;2022-11-11T04:18:32;24.15;;;13.52;;
67065;SDS011;53978;43.846;25.952;2022-11-11T04:21:19;29.15;;;14.27;;
67065;SDS011;53978;43.846;25.952;2022-11-11T04:24:04;21.05;;;12.27;;
67065;SDS011;53978;43.846;25.952;2022-11-11T04:26:49;26.55;;;13.13;;
67065;SDS011;53978;43.846;25.952;2022-11-11T04:29:15;24.38;;;13.68;;
67065;SDS011;53978;43.846;25.952;2022-11-11T04:31:56;26.30;;;14.07;;
67065;SDS011;53978;43.846;25.952;2022-11-11T04:34:42;25.95;;;13.90;;
67065;SDS011;53978;43.846;25.952;2022-11-11T04:37:08;26.73;;;13.70;;
67065;SDS011;53978;43.846;25.952;2022-11-11T04:39:34;27.52;;;14.25;;
67065;SDS011;53978;43.846;25.952;2022-11-11T04:42:18;22.17;;;12.48;;
67065;SDS011;53978;43.846;25.952;2022-11-11T04:44:44;24.73;;;13.73;;
67065;SDS011;53978;43.846;25.952;2022-11-11T04:47:30;22.73;;;12.90;;
67065;SDS011;53978;43.846;25.952;2022-11-11T04:49:55;26.58;;;13.88;;
67065;SDS011;53978;43.846;25.952;2022-11-11T04:52:21;24.88;;;13.95;;
67065;SDS011;53978;43.846;25.952;2022-11-11T04:54:56;25.20;;;13.38;;
67065;SDS011;53978;43.846;25.952;2022-11-11T04:57:45;22.65;;;13.20;;
67065;SDS011;53978;43.846;25.952;2022-11-11T05:00:15;27.63;;;14.77;;
67065;SDS011;53978;43.846;25.952;2022-11-11T05:02:42;27.40;;;14.18;;
67065;SDS011;53978;43.846;25.952;2022-11-11T05:05:26;25.02;;;14.45;;
67065;SDS011;53978;43.846;25.952;2022-11-11T05:07:51;28.65;;;15.52;;
67065;SDS011;53978;43.846;25.952;2022-11-11T05:10:36;29.83;;;14.50;;
67065;SDS011;53978;43.846;25.952;2022-11-11T05:13:04;28.85;;;15.77;;
67065;SDS011;53978;43.846;25.952;2022-11-11T05:15:48;24.83;;;14.17;;
67065;SDS011;53978;43.846;25.952;2022-11-11T05:18:32;24.40;;;13.68;;
67065;SDS011;53978;43.846;25.952;2022-11-11T05:21:26;26.55;;;14.82;;
67065;SDS011;53978;43.846;25.952;2022-11-11T05:23:52;30.38;;;15.25;;
67065;SDS011;53978;43.846;25.952;2022-11-11T05:26:53;24.77;;;13.60;;
67065;SDS011;53978;43.846;25.952;2022-11-11T05:29:34;27.60;;;14.73;;
67065;SDS011;53978;43.846;25.952;2022-11-11T05:32:00;27.88;;;15.10;;
67065;SDS011;53978;43.846;25.952;2022-11-11T05:34:25;29.98;;;15.32;;
67065;SDS011;53978;43.846;25.952;2022-11-11T05:36:51;29.17;;;14.98;;
67065;SDS011;53978;43.846;25.952;2022-11-11T05:39:16;30.52;;;15.15;;
67065;SDS011;53978;43.846;25.952;2022-11-11T05:41:42;29.35;;;15.65;;
67065;SDS011;53978;43.846;25.952;2022-11-11T05:44:09;25.10;;;14.32;;
67065;SDS011;53978;43.846;25.952;2022-11-11T05:46:35;28.90;;;14.20;;
67065;SDS011;53978;43.846;25.952;2022-11-11T05:49:00;26.60;;;15.63;;
67065;SDS011;53978;43.846;25.952;2022-11-11T05:51:41;32.40;;;15.88;;
67065;SDS011;53978;43.846;25.952;2022-11-11T05:54:10;28.77;;;15.80;;
67065;SDS011;53978;43.846;25.952;2022-11-11T05:56:36;32.63;;;16.25;;
67065;SDS011;53978;43.846;25.952;2022-11-11T05:59:04;28.30;;;16.45;;
67065;SDS011;53978;43.846;25.952;2022-11-11T06:01:30;44.03;;;18.08;;
67065;SDS011;53978;43.846;25.952;2022-11-11T06:03:55;41.22;;;17.23;;
67065;SDS011;53978;43.846;25.952;2022-11-11T06:06:21;37.58;;;17.05;;
67065;SDS011;53978;43.846;25.952;2022-11-11T06:08:47;33.75;;;16.90;;
67065;SDS011;53978;43.846;25.952;2022-11-11T06:11:12;36.40;;;17.73;;
67065;SDS011;53978;43.846;25.952;2022-11-11T06:13:37;31.92;;;16.88;;
67065;SDS011;53978;43.846;25.952;2022-11-11T06:16:03;28.48;;;16.75;;
67065;SDS011;53978;43.846;25.952;2022-11-11T06:18:29;27.25;;;16.20;;
67065;SDS011;53978;43.846;25.952;2022-11-11T06:20:54;29.48;;;16.35;;
67065;SDS011;53978;43.846;25.952;2022-11-11T06:23:21;45.70;;;19.77;;
67065;SDS011;53978;43.846;25.952;2022-11-11T06:25:47;32.40;;;17.63;;
67065;SDS011;53978;43.846;25.952;2022-11-11T06:28:33;32.42;;;17.92;;
67065;SDS011;53978;43.846;25.952;2022-11-11T06:30:59;30.05;;;17.38;;
67065;SDS011;53978;43.846;25.952;2022-11-11T06:33:25;38.50;;;19.65;;
67065;SDS011;53978;43.846;25.952;2022-11-11T06:35:50;36.70;;;18.58;;
67065;SDS011;53978;43.846;25.952;2022-11-11T06:38:16;38.50;;;17.50;;
67065;SDS011;53978;43.846;25.952;2022-11-11T06:40:42;36.13;;;17.23;;
67065;SDS011;53978;43.846;25.952;2022-11-11T06:43:07;37.33;;;17.65;;
67065;SDS011;53978;43.846;25.952;2022-11-11T06:45:33;37.35;;;18.15;;
67065;SDS011;53978;43.846;25.952;2022-11-11T06:48:00;37.65;;;17.95;;
67065;SDS011;53978;43.846;25.952;2022-11-11T06:50:25;37.85;;;19.13;;
67065;SDS011;53978;43.846;25.952;2022-11-11T06:52:52;37.85;;;18.23;;
67065;SDS011;53978;43.846;25.952;2022-11-11T06:55:18;40.08;;;18.33;;
67065;SDS011;53978;43.846;25.952;2022-11-11T06:57:43;32.53;;;18.40;;
67065;SDS011;53978;43.846;25.952;2022-11-11T07:00:09;36.20;;;18.80;;
67065;SDS011;53978;43.846;25.952;2022-11-11T07:02:35;36.67;;;17.92;;
67065;SDS011;53978;43.846;25.952;2022-11-11T07:05:01;38.13;;;18.65;;
67065;SDS011;53978;43.846;25.952;2022-11-11T07:07:26;38.05;;;19.52;;
67065;SDS011;53978;43.846;25.952;2022-11-11T07:09:52;33.25;;;18.02;;
67065;SDS011;53978;43.846;25.952;2022-11-11T07:12:19;33.97;;;17.90;;
67065;SDS011;53978;43.846;25.952;2022-11-11T07:14:45;38.70;;;19.60;;
67065;SDS011;53978;43.846;25.952;2022-11-11T07:17:11;38.33;;;19.15;;
67065;SDS011;53978;43.846;25.952;2022-11-11T07:19:36;34.28;;;18.25;;
67065;SDS011;53978;43.846;25.952;2022-11-11T07:22:02;39.25;;;18.35;;
67065;SDS011;53978;43.846;25.952;2022-11-11T07:24:27;35.53;;;18.45;;
67065;SDS011;53978;43.846;25.952;2022-11-11T07:26:52;39.55;;;19.13;;
67065;SDS011;53978;43.846;25.952;2022-11-11T07:29:18;34.35;;;19.75;;
67065;SDS011;53978;43.846;25.952;2022-11-11T07:31:43;34.20;;;17.75;;
67065;SDS011;53978;43.846;25.952;2022-11-11T07:34:09;35.80;;;18.10;;
67065;SDS011;53978;43.846;25.952;2022-11-11T07:36:34;35.22;;;18.20;;
67065;SDS011;53978;43.846;25.952;2022-11-11T07:39:00;40.38;;;18.60;;
67065;SDS011;53978;43.846;25.952;2022-11-11T07:41:25;35.28;;;18.98;;
67065;SDS011;53978;43.846;25.952;2022-11-11T07:43:50;31.30;;;17.70;;
67065;SDS011;53978;43.846;25.952;2022-11-11T07:46:17;37.08;;;17.60;;
67065;SDS011;53978;43.846;25.952;2022-11-11T07:48:42;30.45;;;17.27;;
67065;SDS011;53978;43.846;25.952;2022-11-11T07:51:08;36.78;;;17.63;;
67065;SDS011;53978;43.846;25.952;2022-11-11T07:53:33;38.50;;;18.60;;
67065;SDS011;53978;43.846;25.952;2022-11-11T07:55:59;36.00;;;18.30;;
67065;SDS011;53978;43.846;25.952;2022-11-11T07:58:24;52.30;;;23.48;;
67065;SDS011;53978;43.846;25.952;2022-11-11T08:00:51;34.85;;;17.98;;
67065;SDS011;53978;43.846;25.952;2022-11-11T08:03:16;28.20;;;16.98;;
67065;SDS011;53978;43.846;25.952;2022-11-11T08:05:42;32.13;;;17.48;;
67065;SDS011;53978;43.846;25.952;2022-11-11T08:08:08;28.80;;;17.42;;
67065;SDS011;53978;43.846;25.952;2022-11-11T08:10:34;30.90;;;16.65;;
67065;SDS011;53978;43.846;25.952;2022-11-11T08:13:00;32.28;;;16.60;;
67065;SDS011;53978;43.846;25.952;2022-11-11T08:15:44;28.48;;;14.93;;
67065;SDS011;53978;43.846;25.952;2022-11-11T08:18:13;30.17;;;15.98;;
67065;SDS011;53978;43.846;25.952;2022-11-11T08:20:38;33.58;;;16.00;;
67065;SDS011;53978;43.846;25.952;2022-11-11T08:23:04;27.17;;;14.18;;
67065;SDS011;53978;43.846;25.952;2022-11-11T08:25:34;24.05;;;14.00;;
67065;SDS011;53978;43.846;25.952;2022-11-11T08:28:05;29.92;;;14.93;;
67065;SDS011;53978;43.846;25.952;2022-11-11T08:30:31;30.40;;;14.10;;
67065;SDS011;53978;43.846;25.952;2022-11-11T08:33:04;26.60;;;13.77;;
67065;SDS011;53978;43.846;25.952;2022-11-11T08:35:30;23.92;;;12.45;;
67065;SDS011;53978;43.846;25.952;2022-11-11T08:37:59;25.50;;;13.75;;
67065;SDS011;53978;43.846;25.952;2022-11-11T08:40:27;25.02;;;13.80;;
67065;SDS011;53978;43.846;25.952;2022-11-11T08:42:58;27.05;;;13.60;;
67065;SDS011;53978;43.846;25.952;2022-11-11T08:45:31;29.48;;;14.15;;
67065;SDS011;53978;43.846;25.952;2022-11-11T08:47:57;30.83;;;14.63;;
67065;SDS011;53978;43.846;25.952;2022-11-11T08:50:22;28.88;;;14.50;;
67065;SDS011;53978;43.846;25.952;2022-11-11T08:52:51;28.55;;;14.23;;
67065;SDS011;53978;43.846;25.952;2022-11-11T08:55:17;27.02;;;12.50;;
67065;SDS011;53978;43.846;25.952;2022-11-11T08:57:48;28.75;;;13.23;;
67065;SDS011;53978;43.846;25.952;2022-11-11T09:00:29;24.48;;;12.20;;
67065;SDS011;53978;43.846;25.952;2022-11-11T09:02:58;26.17;;;12.70;;
67065;SDS011;53978;43.846;25.952;2022-11-11T09:05:25;27.35;;;12.07;;
67065;SDS011;53978;43.846;25.952;2022-11-11T09:07:50;27.02;;;13.20;;
67065;SDS011;53978;43.846;25.952;2022-11-11T09:10:18;23.70;;;12.52;;
67065;SDS011;53978;43.846;25.952;2022-11-11T09:12:43;26.58;;;12.85;;
67065;SDS011;53978;43.846;25.952;2022-11-11T09:21:08;29.77;;;13.93;;
67065;SDS011;53978;43.846;25.952;2022-11-11T09:26:09;31.50;;;15.85;;
67065;SDS011;53978;43.846;25.952;2022-11-11T09:28:36;25.00;;;14.43;;
67065;SDS011;53978;43.846;25.952;2022-11-11T09:31:04;25.27;;;14.05;;
67065;SDS011;53978;43.846;25.952;2022-11-11T09:33:30;26.95;;;14.27;;
67065;SDS011;53978;43.846;25.952;2022-11-11T09:35:56;27.13;;;14.55;;
67065;SDS011;53978;43.846;25.952;2022-11-11T09:38:22;25.20;;;12.95;;
67065;SDS011;53978;43.846;25.952;2022-11-11T09:40:50;25.42;;;11.88;;
67065;SDS011;53978;43.846;25.952;2022-11-11T10:13:08;19.08;;;10.90;;
67065;SDS011;53978;43.846;25.952;2022-11-11T10:18:26;18.67;;;9.90;;
67065;SDS011;53978;43.846;25.952;2022-11-11T10:23:31;16.95;;;8.38;;
67065;SDS011;53978;43.846;25.952;2022-11-11T10:26:12;12.25;;;6.68;;
67065;SDS011;53978;43.846;25.952;2022-11-11T10:28:44;11.33;;;7.20;;
67065;SDS011;53978;43.846;25.952;2022-11-11T10:31:12;11.07;;;6.03;;
67065;SDS011;53978;43.846;25.952;2022-11-11T10:33:47;9.68;;;5.40;;
67065;SDS011;53978;43.846;25.952;2022-11-11T10:36:16;7.32;;;4.63;;
67065;SDS011;53978;43.846;25.952;2022-11-11T10:38:48;7.65;;;4.55;;
67065;SDS011;53978;43.846;25.952;2022-11-11T10:43:45;6.68;;;4.15;;
67065;SDS011;53978;43.846;25.952;2022-11-11T10:48:59;5.07;;;3.28;;
67065;SDS011;53978;43.846;25.952;2022-11-11T10:51:38;3.55;;;2.63;;
67065;SDS011;53978;43.846;25.952;2022-11-11T10:54:13;3.10;;;2.38;;
67065;SDS011;53978;43.846;25.952;2022-11-11T10:56:55;4.43;;;2.47;;
67065;SDS011;53978;43.846;25.952;2022-11-11T11:02:18;5.15;;;2.28;;
67065;SDS011;53978;43.846;25.952;2022-11-11T11:05:02;2.97;;;1.98;;
67065;SDS011;53978;43.846;25.952;2022-11-11T11:07:33;2.63;;;1.83;;
67065;SDS011;53978;43.846;25.952;2022-11-11T11:10:05;1.83;;;1.52;;
67065;SDS011;53978;43.846;25.952;2022-11-11T11:15:36;2.72;;;1.83;;
67065;SDS011;53978;43.846;25.952;2022-11-11T11:18:08;1.85;;;1.45;;
67065;SDS011;53978;43.846;25.952;2022-11-11T11:26:06;2.78;;;1.80;;
67065;SDS011;53978;43.846;25.952;2022-11-11T11:28:53;3.60;;;2.00;;
67065;SDS011;53978;43.846;25.952;2022-11-11T11:31:38;4.63;;;2.00;;
67065;SDS011;53978;43.846;25.952;2022-11-11T11:34:12;3.03;;;1.95;;
67065;SDS011;53978;43.846;25.952;2022-11-11T11:36:40;2.75;;;2.00;;
67065;SDS011;53978;43.846;25.952;2022-11-11T11:39:27;2.55;;;1.88;;
67065;SDS011;53978;43.846;25.952;2022-11-11T11:41:56;2.10;;;1.70;;
67065;SDS011;53978;43.846;25.952;2022-11-11T11:44:26;2.55;;;1.75;;
67065;SDS011;53978;43.846;25.952;2022-11-11T11:47:01;5.65;;;2.05;;
67065;SDS011;53978;43.846;25.952;2022-11-11T11:49:41;2.20;;;1.70;;
67065;SDS011;53978;43.846;25.952;2022-11-11T11:52:29;2.53;;;1.90;;
67065;SDS011;53978;43.846;25.952;2022-11-11T11:55:06;2.22;;;1.70;;
67065;SDS011;53978;43.846;25.952;2022-11-11T12:00:29;3.33;;;1.95;;
67065;SDS011;53978;43.846;25.952;2022-11-11T12:17:00;3.65;;;2.08;;
67065;SDS011;53978;43.846;25.952;2022-11-11T12:28:01;3.78;;;2.88;;
67065;SDS011;53978;43.846;25.952;2022-11-11T12:30:33;4.38;;;2.58;;
67065;SDS011;53978;43.846;25.952;2022-11-11T12:38:57;2.88;;;2.25;;
67065;SDS011;53978;43.846;25.952;2022-11-11T12:41:32;4.15;;;2.78;;
67065;SDS011;53978;43.846;25.952;2022-11-11T12:44:12;4.37;;;2.90;;
67065;SDS011;53978;43.846;25.952;2022-11-11T12:47:11;5.95;;;2.90;;
67065;SDS011;53978;43.846;25.952;2022-11-11T12:55:35;3.22;;;2.30;;
67065;SDS011;53978;43.846;25.952;2022-11-11T12:58:27;4.68;;;3.00;;
67065;SDS011;53978;43.846;25.952;2022-11-11T13:07:04;2.83;;;2.05;;
67065;SDS011;53978;43.846;25.952;2022-11-11T13:10:00;3.33;;;2.45;;
67065;SDS011;53978;43.846;25.952;2022-11-11T13:12:47;3.42;;;2.22;;
67065;SDS011;53978;43.846;25.952;2022-11-11T13:15:26;3.30;;;2.25;;
67065;SDS011;53978;43.846;25.952;2022-11-11T13:17:55;4.80;;;3.42;;
67065;SDS011;53978;43.846;25.952;2022-11-11T13:20:28;3.28;;;2.63;;
67065;SDS011;53978;43.846;25.952;2022-11-11T13:26:19;4.47;;;2.65;;
67065;SDS011;53978;43.846;25.952;2022-11-11T13:29:09;4.50;;;2.90;;
67065;SDS011;53978;43.846;25.952;2022-11-11T13:31:42;3.58;;;2.60;;
67065;SDS011;53978;43.846;25.952;2022-11-11T13:34:09;3.42;;;2.47;;
67065;SDS011;53978;43.846;25.952;2022-11-11T13:36:48;3.63;;;2.75;;
67065;SDS011;53978;43.846;25.952;2022-11-11T13:39:32;4.18;;;2.25;;
67065;SDS011;53978;43.846;25.952;2022-11-11T13:42:04;6.13;;;2.35;;
67065;SDS011;53978;43.846;25.952;2022-11-11T13:44:43;3.20;;;2.40;;
67065;SDS011;53978;43.846;25.952;2022-11-11T13:47:17;3.50;;;2.50;;
67065;SDS011;53978;43.846;25.952;2022-11-11T13:49:54;3.05;;;2.35;;
67065;SDS011;53978;43.846;25.952;2022-11-11T13:52:26;2.90;;;2.33;;
67065;SDS011;53978;43.846;25.952;2022-11-11T13:54:58;3.42;;;2.58;;
67065;SDS011;53978;43.846;25.952;2022-11-11T13:57:26;4.20;;;2.65;;
67065;SDS011;53978;43.846;25.952;2022-11-11T14:02:32;4.75;;;2.60;;
67065;SDS011;53978;43.846;25.952;2022-11-11T14:10:08;3.60;;;2.35;;
67065;SDS011;53978;43.846;25.952;2022-11-11T14:12:43;3.22;;;2.50;;
67065;SDS011;53978;43.846;25.952;2022-11-11T14:17:54;3.47;;;2.33;;
67065;SDS011;53978;43.846;25.952;2022-11-11T14:22:54;7.93;;;2.95;;
67065;SDS011;53978;43.846;25.952;2022-11-11T14:25:30;6.90;;;3.17;;
67065;SDS011;53978;43.846;25.952;2022-11-11T14:27:57;6.10;;;3.35;;
67065;SDS011;53978;43.846;25.952;2022-11-11T14:30:36;7.70;;;3.20;;
67065;SDS011;53978;43.846;25.952;2022-11-11T14:38:47;5.20;;;3.65;;
67065;SDS011;53978;43.846;25.952;2022-11-11T15:00:15;6.05;;;3.78;;
67065;SDS011;53978;43.846;25.952;2022-11-11T15:02:50;7.60;;;4.00;;
67065;SDS011;53978;43.846;25.952;2022-11-11T15:13:43;5.47;;;4.18;;
67065;SDS011;53978;43.846;25.952;2022-11-11T15:34:05;9.77;;;5.17;;
67065;SDS011;53978;43.846;25.952;2022-11-11T15:36:50;7.32;;;4.75;;
67065;SDS011;53978;43.846;25.952;2022-11-11T15:39:25;17.27;;;5.97;;
67065;SDS011;53978;43.846;25.952;2022-11-11T15:41:56;10.00;;;5.75;;
67065;SDS011;53978;43.846;25.952;2022-11-11T15:44:22;10.10;;;5.72;;
67065;SDS011;53978;43.846;25.952;2022-11-11T15:46:52;11.18;;;5.68;;
67065;SDS011;53978;43.846;25.952;2022-11-11T15:52:03;9.77;;;6.43;;
67065;SDS011;53978;43.846;25.952;2022-11-11T15:54:31;12.23;;;7.30;;
67065;SDS011;53978;43.846;25.952;2022-11-11T15:56:57;16.63;;;9.38;;
67065;SDS011;53978;43.846;25.952;2022-11-11T15:59:29;14.50;;;8.02;;
67065;SDS011;53978;43.846;25.952;2022-11-11T16:02:13;9.43;;;6.10;;
67065;SDS011;53978;43.846;25.952;2022-11-11T16:05:00;9.57;;;6.20;;
67065;SDS011;53978;43.846;25.952;2022-11-11T16:07:35;7.90;;;5.88;;
67065;SDS011;53978;43.846;25.952;2022-11-11T16:10:36;10.65;;;5.78;;
67065;SDS011;53978;43.846;25.952;2022-11-11T16:15:36;7.30;;;4.97;;
67065;SDS011;53978;43.846;25.952;2022-11-11T16:18:26;7.63;;;4.10;;
67065;SDS011;53978;43.846;25.952;2022-11-11T16:21:13;7.78;;;5.13;;
67065;SDS011;53978;43.846;25.952;2022-11-11T16:23:42;11.85;;;6.43;;
67065;SDS011;53978;43.846;25.952;2022-11-11T16:26:09;7.60;;;4.78;;
67065;SDS011;53978;43.846;25.952;2022-11-11T16:28:46;7.85;;;4.95;;
67065;SDS011;53978;43.846;25.952;2022-11-11T16:36:15;8.05;;;4.55;;
67065;SDS011;53978;43.846;25.952;2022-11-11T16:38:41;6.40;;;4.75;;
67065;SDS011;53978;43.846;25.952;2022-11-11T16:41:25;7.85;;;5.20;;
67065;SDS011;53978;43.846;25.952;2022-11-11T16:43:58;8.02;;;5.22;;
67065;SDS011;53978;43.846;25.952;2022-11-11T16:51:48;8.50;;;5.63;;
67065;SDS011;53978;43.846;25.952;2022-11-11T16:57:17;6.57;;;3.92;;
67065;SDS011;53978;43.846;25.952;2022-11-11T16:59:47;8.10;;;4.75;;
67065;SDS011;53978;43.846;25.952;2022-11-11T17:02:21;7.22;;;4.70;;
67065;SDS011;53978;43.846;25.952;2022-11-11T17:04:53;6.80;;;4.93;;
67065;SDS011;53978;43.846;25.952;2022-11-11T17:07:45;8.18;;;5.13;;
67065;SDS011;53978;43.846;25.952;2022-11-11T17:10:20;8.82;;;4.55;;
67065;SDS011;53978;43.846;25.952;2022-11-11T17:12:56;6.32;;;4.20;;
67065;SDS011;53978;43.846;25.952;2022-11-11T17:15:27;5.40;;;3.78;;
67065;SDS011;53978;43.846;25.952;2022-11-11T17:17:52;5.10;;;3.60;;
67065;SDS011;53978;43.846;25.952;2022-11-11T17:20:18;8.40;;;3.75;;
67065;SDS011;53978;43.846;25.952;2022-11-11T17:25:18;6.15;;;4.32;;
67065;SDS011;53978;43.846;25.952;2022-11-11T17:27:44;9.15;;;4.43;;
67065;SDS011;53978;43.846;25.952;2022-11-11T17:30:11;4.85;;;3.67;;
67065;SDS011;53978;43.846;25.952;2022-11-11T17:32:37;6.30;;;4.03;;
67065;SDS011;53978;43.846;25.952;2022-11-11T17:35:03;8.32;;;4.50;;
67065;SDS011;53978;43.846;25.952;2022-11-11T17:37:32;6.72;;;4.53;;
67065;SDS011;53978;43.846;25.952;2022-11-11T17:39:58;9.05;;;5.40;;
67065;SDS011;53978;43.846;25.952;2022-11-11T17:42:24;12.05;;;5.97;;
67065;SDS011;53978;43.846;25.952;2022-11-11T17:44:49;10.57;;;5.85;;
67065;SDS011;53978;43.846;25.952;2022-11-11T17:47:14;13.60;;;5.93;;
67065;SDS011;53978;43.846;25.952;2022-11-11T17:49:40;16.02;;;6.78;;
67065;SDS011;53978;43.846;25.952;2022-11-11T17:52:05;11.27;;;6.65;;
67065;SDS011;53978;43.846;25.952;2022-11-11T17:54:33;9.13;;;6.28;;
67065;SDS011;53978;43.846;25.952;2022-11-11T17:57:10;9.15;;;5.60;;